sensor_id;sensor_type;location;lat;lon;timestamp;pressure;altitude;pressure_sealevel;temperature;humidity
20145;BME280;10233;50.814;6.590;2023-04-05T00:00:18;100980.59;;;4.09;87.33
20145;BME280;10233;50.814;6.590;2023-04-05T00:01:19;100979.34;;;4.13;87.84
20145;BME280;10233;50.814;6.590;2023-04-05T00:02:20;100975.31;;;4.19;87.48
20145;BME280;10233;50.814;6.590;2023-04-05T00:03:20;100977.81;;;4.20;87.44
20145;BME280;10233;50.814;6.590;2023-04-05T00:04:21;100980.00;;;4.25;87.43
20145;BME280;10233;50.814;6.590;2023-04-05T00:05:23;100980.59;;;4.19;87.61
20145;BME280;10233;50.814;6.590;2023-04-05T00:06:30;100978.38;;;4.14;87.30
20145;BME280;10233;50.814;6.590;2023-04-05T00:07:31;100980.31;;;4.12;87.88
20145;BME280;10233;50.814;6.590;2023-04-05T00:08:33;100973.69;;;4.08;87.81
20145;BME280;10233;50.814;6.590;2023-04-05T00:09:34;100969.53;;;4.06;88.30
20145;BME280;10233;50.814;6.590;2023-04-05T00:10:36;100965.13;;;4.06;88.37
20145;BME280;10233;50.814;6.590;2023-04-05T00:11:36;100966.63;;;4.09;88.46
20145;BME280;10233;50.814;6.590;2023-04-05T00:12:37;100964.00;;;4.09;88.40
20145;BME280;10233;50.814;6.590;2023-04-05T00:13:38;100960.66;;;4.07;88.69
20145;BME280;10233;50.814;6.590;2023-04-05T00:14:38;100968.41;;;4.08;89.16
20145;BME280;10233;50.814;6.590;2023-04-05T00:15:39;100972.03;;;4.07;89.24
20145;BME280;10233;50.814;6.590;2023-04-05T00:16:40;100968.41;;;4.08;89.15
20145;BME280;10233;50.814;6.590;2023-04-05T00:17:41;100967.16;;;4.12;89.10
20145;BME280;10233;50.814;6.590;2023-04-05T00:18:43;100963.28;;;4.07;89.06
20145;BME280;10233;50.814;6.590;2023-04-05T00:19:50;100963.16;;;4.08;89.16
20145;BME280;10233;50.814;6.590;2023-04-05T00:20:56;100965.13;;;4.06;88.46
20145;BME280;10233;50.814;6.590;2023-04-05T00:21:59;100964.97;;;4.08;88.40
20145;BME280;10233;50.814;6.590;2023-04-05T00:23:00;100960.66;;;4.07;87.65
20145;BME280;10233;50.814;6.590;2023-04-05T00:24:01;100967.03;;;4.04;87.16
20145;BME280;10233;50.814;6.590;2023-04-05T00:25:05;100958.47;;;4.02;87.46
20145;BME280;10233;50.814;6.590;2023-04-05T00:26:08;100956.91;;;4.09;87.93
20145;BME280;10233;50.814;6.590;2023-04-05T00:27:10;100949.88;;;4.10;88.37
20145;BME280;10233;50.814;6.590;2023-04-05T00:28:11;100953.63;;;4.07;89.23
20145;BME280;10233;50.814;6.590;2023-04-05T00:29:12;100952.94;;;4.05;89.73
20145;BME280;10233;50.814;6.590;2023-04-05T00:30:13;100957.63;;;4.02;90.29
20145;BME280;10233;50.814;6.590;2023-04-05T00:31:20;100951.25;;;4.04;90.98
20145;BME280;10233;50.814;6.590;2023-04-05T00:32:21;100951.69;;;4.00;90.85
20145;BME280;10233;50.814;6.590;2023-04-05T00:33:21;100950.31;;;3.96;91.25
20145;BME280;10233;50.814;6.590;2023-04-05T00:34:22;100952.41;;;3.92;90.67
20145;BME280;10233;50.814;6.590;2023-04-05T00:35:26;100947.97;;;3.93;91.32
20145;BME280;10233;50.814;6.590;2023-04-05T00:36:26;100946.44;;;3.90;91.01
20145;BME280;10233;50.814;6.590;2023-04-05T00:37:27;100957.66;;;3.92;91.30
20145;BME280;10233;50.814;6.590;2023-04-05T00:38:28;100954.06;;;3.93;91.58
20145;BME280;10233;50.814;6.590;2023-04-05T00:39:28;100950.06;;;3.89;91.40
20145;BME280;10233;50.814;6.590;2023-04-05T00:40:29;100941.03;;;3.92;91.21
20145;BME280;10233;50.814;6.590;2023-04-05T00:41:29;100950.44;;;3.94;91.14
20145;BME280;10233;50.814;6.590;2023-04-05T00:42:32;100943.94;;;3.98;91.05
20145;BME280;10233;50.814;6.590;2023-04-05T00:43:33;100951.56;;;4.01;90.42
20145;BME280;10233;50.814;6.590;2023-04-05T00:44:34;100943.53;;;4.03;89.96
20145;BME280;10233;50.814;6.590;2023-04-05T00:45:35;100944.34;;;4.03;89.61
20145;BME280;10233;50.814;6.590;2023-04-05T00:46:35;100944.88;;;4.07;89.38
20145;BME280;10233;50.814;6.590;2023-04-05T00:47:37;100943.78;;;4.09;89.68
20145;BME280;10233;50.814;6.590;2023-04-05T00:48:38;100947.91;;;4.12;89.19
20145;BME280;10233;50.814;6.590;2023-04-05T00:49:39;100944.47;;;4.11;89.04
20145;BME280;10233;50.814;6.590;2023-04-05T00:50:40;100950.00;;;4.08;89.20
20145;BME280;10233;50.814;6.590;2023-04-05T00:51:43;100946.56;;;4.08;88.84
20145;BME280;10233;50.814;6.590;2023-04-05T00:52:45;100947.50;;;4.07;89.30
20145;BME280;10233;50.814;6.590;2023-04-05T00:53:46;100949.75;;;4.02;89.38
20145;BME280;10233;50.814;6.590;2023-04-05T00:54:48;100959.84;;;3.97;89.99
20145;BME280;10233;50.814;6.590;2023-04-05T00:55:50;100956.56;;;3.95;90.34
20145;BME280;10233;50.814;6.590;2023-04-05T00:56:52;100953.09;;;3.94;90.71
20145;BME280;10233;50.814;6.590;2023-04-05T00:57:54;100957.66;;;3.92;90.93
20145;BME280;10233;50.814;6.590;2023-04-05T00:58:55;100952.94;;;3.96;91.58
20145;BME280;10233;50.814;6.590;2023-04-05T00:59:59;100957.78;;;4.00;92.11
20145;BME280;10233;50.814;6.590;2023-04-05T01:01:20;100956.38;;;4.06;91.93
20145;BME280;10233;50.814;6.590;2023-04-05T01:02:31;100948.09;;;4.10;91.89
20145;BME280;10233;50.814;6.590;2023-04-05T01:03:34;100950.41;;;4.13;91.80
20145;BME280;10233;50.814;6.590;2023-04-05T01:04:36;100947.78;;;4.13;91.46
20145;BME280;10233;50.814;6.590;2023-04-05T01:05:48;100954.28;;;4.19;91.32
20145;BME280;10233;50.814;6.590;2023-04-05T01:07:12;100945.41;;;4.20;90.97
20145;BME280;10233;50.814;6.590;2023-04-05T01:08:22;100943.22;;;4.15;90.97
20145;BME280;10233;50.814;6.590;2023-04-05T01:09:50;100938.63;;;4.17;90.76
20145;BME280;10233;50.814;6.590;2023-04-05T01:10:57;100944.72;;;4.18;90.82
20145;BME280;10233;50.814;6.590;2023-04-05T01:12:02;100937.13;;;4.15;91.17
20145;BME280;10233;50.814;6.590;2023-04-05T01:13:05;100933.66;;;4.14;91.28
20145;BME280;10233;50.814;6.590;2023-04-05T01:14:05;100936.28;;;4.14;91.47
20145;BME280;10233;50.814;6.590;2023-04-05T01:15:07;100938.50;;;4.09;91.59
20145;BME280;10233;50.814;6.590;2023-04-05T01:16:09;100934.22;;;4.08;91.83
20145;BME280;10233;50.814;6.590;2023-04-05T01:17:10;100935.06;;;4.09;92.01
20145;BME280;10233;50.814;6.590;2023-04-05T01:18:12;100937.69;;;4.09;92.18
20145;BME280;10233;50.814;6.590;2023-04-05T01:19:14;100941.44;;;4.06;92.33
20145;BME280;10233;50.814;6.590;2023-04-05T01:20:14;100937.28;;;4.04;92.44
20145;BME280;10233;50.814;6.590;2023-04-05T01:25:43;100935.25;;;3.98;93.28
20145;BME280;10233;50.814;6.590;2023-04-05T01:30:38;100926.25;;;3.91;93.95
20145;BME280;10233;50.814;6.590;2023-04-05T01:31:58;100924.47;;;3.91;94.68
20145;BME280;10233;50.814;6.590;2023-04-05T01:33:16;100926.66;;;3.96;94.97
20145;BME280;10233;50.814;6.590;2023-04-05T01:34:33;100921.94;;;3.99;94.80
20145;BME280;10233;50.814;6.590;2023-04-05T01:35:42;100930.22;;;4.04;94.93
20145;BME280;10233;50.814;6.590;2023-04-05T01:36:50;100922.63;;;4.01;95.27
20145;BME280;10233;50.814;6.590;2023-04-05T01:37:58;100924.28;;;4.02;94.97
20145;BME280;10233;50.814;6.590;2023-04-05T01:39:00;100928.03;;;4.00;95.43
20145;BME280;10233;50.814;6.590;2023-04-05T01:40:04;100936.34;;;3.95;95.55
20145;BME280;10233;50.814;6.590;2023-04-05T01:41:05;100925.66;;;3.97;95.79
20145;BME280;10233;50.814;6.590;2023-04-05T01:42:06;100918.38;;;3.91;95.81
20145;BME280;10233;50.814;6.590;2023-04-05T01:43:14;100917.81;;;3.87;96.55
20145;BME280;10233;50.814;6.590;2023-04-05T01:44:15;100917.28;;;3.84;96.60
20145;BME280;10233;50.814;6.590;2023-04-05T01:45:15;100919.22;;;3.82;97.26
20145;BME280;10233;50.814;6.590;2023-04-05T01:46:16;100912.84;;;3.84;97.42
20145;BME280;10233;50.814;6.590;2023-04-05T01:47:16;100915.19;;;3.87;97.78
20145;BME280;10233;50.814;6.590;2023-04-05T01:48:17;100907.84;;;3.91;97.96
20145;BME280;10233;50.814;6.590;2023-04-05T01:49:18;100911.00;;;3.94;98.12
20145;BME280;10233;50.814;6.590;2023-04-05T01:50:19;100909.50;;;3.92;98.01
20145;BME280;10233;50.814;6.590;2023-04-05T01:51:19;100914.47;;;3.95;97.75
20145;BME280;10233;50.814;6.590;2023-04-05T01:52:20;100912.53;;;3.97;98.08
20145;BME280;10233;50.814;6.590;2023-04-05T01:53:21;100906.72;;;3.93;97.88
20145;BME280;10233;50.814;6.590;2023-04-05T01:54:21;100905.06;;;3.92;97.74
20145;BME280;10233;50.814;6.590;2023-04-05T01:55:22;100910.34;;;3.92;98.05
20145;BME280;10233;50.814;6.590;2023-04-05T01:56:22;100905.66;;;3.86;98.06
20145;BME280;10233;50.814;6.590;2023-04-05T01:57:23;100900.66;;;3.83;98.34
20145;BME280;10233;50.814;6.590;2023-04-05T01:58:23;100900.94;;;3.80;98.30
20145;BME280;10233;50.814;6.590;2023-04-05T01:59:24;100909.00;;;3.79;98.92
20145;BME280;10233;50.814;6.590;2023-04-05T02:00:25;100907.88;;;3.72;98.85
20145;BME280;10233;50.814;6.590;2023-04-05T02:01:27;100909.00;;;3.69;99.43
20145;BME280;10233;50.814;6.590;2023-04-05T02:02:27;100911.50;;;3.71;99.64
20145;BME280;10233;50.814;6.590;2023-04-05T02:03:31;100908.59;;;3.74;99.92
20145;BME280;10233;50.814;6.590;2023-04-05T02:04:32;100905.09;;;3.83;100.00
20145;BME280;10233;50.814;6.590;2023-04-05T02:05:33;100907.44;;;3.86;99.73
20145;BME280;10233;50.814;6.590;2023-04-05T02:06:33;100908.69;;;3.91;99.07
20145;BME280;10233;50.814;6.590;2023-04-05T02:07:35;100910.34;;;3.92;99.07
20145;BME280;10233;50.814;6.590;2023-04-05T02:08:36;100910.47;;;3.91;99.29
20145;BME280;10233;50.814;6.590;2023-04-05T02:09:37;100904.38;;;3.90;99.15
20145;BME280;10233;50.814;6.590;2023-04-05T02:10:37;100904.38;;;3.90;99.26
20145;BME280;10233;50.814;6.590;2023-04-05T02:11:38;100901.59;;;3.92;99.56
20145;BME280;10233;50.814;6.590;2023-04-05T02:12:38;100909.75;;;3.98;99.70
20145;BME280;10233;50.814;6.590;2023-04-05T02:13:39;100902.84;;;3.97;99.83
20145;BME280;10233;50.814;6.590;2023-04-05T02:14:40;100904.50;;;3.98;99.97
20145;BME280;10233;50.814;6.590;2023-04-05T02:15:49;100902.84;;;3.97;99.79
20145;BME280;10233;50.814;6.590;2023-04-05T02:16:49;100906.72;;;3.93;99.78
20145;BME280;10233;50.814;6.590;2023-04-05T02:17:50;100904.81;;;3.95;100.00
20145;BME280;10233;50.814;6.590;2023-04-05T02:18:54;100906.47;;;3.96;100.00
20145;BME280;10233;50.814;6.590;2023-04-05T02:19:57;100903.69;;;3.98;100.00
20145;BME280;10233;50.814;6.590;2023-04-05T02:21:05;100896.47;;;3.90;100.00
20145;BME280;10233;50.814;6.590;2023-04-05T02:22:07;100896.47;;;3.90;100.00
20145;BME280;10233;50.814;6.590;2023-04-05T02:23:07;100900.28;;;3.78;100.00
20145;BME280;10233;50.814;6.590;2023-04-05T02:24:08;100899.59;;;3.76;100.00
20145;BME280;10233;50.814;6.590;2023-04-05T02:25:09;100896.84;;;3.68;100.00
20145;BME280;10233;50.814;6.590;2023-04-05T02:26:11;100894.34;;;3.67;100.00
20145;BME280;10233;50.814;6.590;2023-04-05T02:27:12;100902.09;;;3.68;100.00
20145;BME280;10233;50.814;6.590;2023-04-05T02:28:13;100903.06;;;3.67;100.00
20145;BME280;10233;50.814;6.590;2023-04-05T02:29:13;100902.53;;;3.64;100.00
20145;BME280;10233;50.814;6.590;2023-04-05T02:30:15;100908.19;;;3.59;100.00
20145;BME280;10233;50.814;6.590;2023-04-05T02:31:16;100903.50;;;3.53;100.00
20145;BME280;10233;50.814;6.590;2023-04-05T02:32:16;100906.69;;;3.47;100.00
20145;BME280;10233;50.814;6.590;2023-04-05T02:33:17;100902.38;;;3.46;100.00
20145;BME280;10233;50.814;6.590;2023-04-05T02:34:18;100901.56;;;3.46;100.00
20145;BME280;10233;50.814;6.590;2023-04-05T02:35:18;100902.97;;;3.50;100.00
20145;BME280;10233;50.814;6.590;2023-04-05T02:36:20;100894.91;;;3.51;100.00
20145;BME280;10233;50.814;6.590;2023-04-05T02:37:21;100898.50;;;3.50;100.00
20145;BME280;10233;50.814;6.590;2023-04-05T02:38:22;100899.34;;;3.51;100.00
20145;BME280;10233;50.814;6.590;2023-04-05T02:39:22;100901.16;;;3.50;100.00
20145;BME280;10233;50.814;6.590;2023-04-05T02:40:23;100898.25;;;3.44;100.00
20145;BME280;10233;50.814;6.590;2023-04-05T02:41:24;100896.19;;;3.47;100.00
20145;BME280;10233;50.814;6.590;2023-04-05T02:42:25;100897.84;;;3.48;100.00
20145;BME280;10233;50.814;6.590;2023-04-05T02:43:25;100896.88;;;3.49;100.00
20145;BME280;10233;50.814;6.590;2023-04-05T02:44:28;100900.16;;;3.51;100.00
20145;BME280;10233;50.814;6.590;2023-04-05T02:45:29;100900.88;;;3.53;100.00
20145;BME280;10233;50.814;6.590;2023-04-05T02:46:32;100910.44;;;3.45;100.00
20145;BME280;10233;50.814;6.590;2023-04-05T02:47:34;100905.19;;;3.45;100.00
20145;BME280;10233;50.814;6.590;2023-04-05T02:48:35;100904.88;;;3.48;100.00
20145;BME280;10233;50.814;6.590;2023-04-05T02:49:37;100904.63;;;3.51;100.00
20145;BME280;10233;50.814;6.590;2023-04-05T02:50:39;100904.47;;;3.52;100.00
20145;BME280;10233;50.814;6.590;2023-04-05T02:51:40;100902.53;;;3.54;100.00
20145;BME280;10233;50.814;6.590;2023-04-05T02:52:43;100908.50;;;3.56;100.00
20145;BME280;10233;50.814;6.590;2023-04-05T02:53:44;100908.75;;;3.53;100.00
20145;BME280;10233;50.814;6.590;2023-04-05T02:54:47;100907.91;;;3.53;100.00
20145;BME280;10233;50.814;6.590;2023-04-05T02:55:56;100901.28;;;3.49;100.00
20145;BME280;10233;50.814;6.590;2023-04-05T02:56:59;100896.88;;;3.49;100.00
20145;BME280;10233;50.814;6.590;2023-04-05T02:58:04;100895.34;;;3.56;100.00
20145;BME280;10233;50.814;6.590;2023-04-05T02:59:10;100901.81;;;3.62;100.00
20145;BME280;10233;50.814;6.590;2023-04-05T03:00:13;100902.13;;;3.59;100.00
20145;BME280;10233;50.814;6.590;2023-04-05T03:01:14;100897.00;;;3.57;100.00
20145;BME280;10233;50.814;6.590;2023-04-05T03:02:19;100903.25;;;3.56;100.00
20145;BME280;10233;50.814;6.590;2023-04-05T03:03:23;100903.25;;;3.56;100.00
20145;BME280;10233;50.814;6.590;2023-04-05T03:04:26;100894.66;;;3.54;100.00
20145;BME280;10233;50.814;6.590;2023-04-05T03:05:31;100898.91;;;3.55;100.00
20145;BME280;10233;50.814;6.590;2023-04-05T03:06:32;100897.00;;;3.57;100.00
20145;BME280;10233;50.814;6.590;2023-04-05T03:07:34;100893.41;;;3.58;100.00
20145;BME280;10233;50.814;6.590;2023-04-05T03:08:40;100899.75;;;3.56;100.00
20145;BME280;10233;50.814;6.590;2023-04-05T03:09:44;100890.78;;;3.58;100.00
20145;BME280;10233;50.814;6.590;2023-04-05T03:10:46;100899.34;;;3.60;100.00
20145;BME280;10233;50.814;6.590;2023-04-05T03:11:50;100894.38;;;3.57;100.00
20145;BME280;10233;50.814;6.590;2023-04-05T03:12:51;100894.78;;;3.62;100.00
20145;BME280;10233;50.814;6.590;2023-04-05T03:13:56;100893.81;;;3.63;100.00
20145;BME280;10233;50.814;6.590;2023-04-05T03:15:10;100883.03;;;3.66;100.00
20145;BME280;10233;50.814;6.590;2023-04-05T03:16:14;100893.53;;;3.66;100.00
20145;BME280;10233;50.814;6.590;2023-04-05T03:17:16;100891.56;;;3.68;100.00
20145;BME280;10233;50.814;6.590;2023-04-05T03:18:22;100888.28;;;3.66;100.00
20145;BME280;10233;50.814;6.590;2023-04-05T03:19:26;100892.81;;;3.64;100.00
20145;BME280;10233;50.814;6.590;2023-04-05T03:20:33;100886.63;;;3.56;100.00
20145;BME280;10233;50.814;6.590;2023-04-05T03:21:36;100892.16;;;3.53;100.00
20145;BME280;10233;50.814;6.590;2023-04-05T03:22:44;100894.91;;;3.51;100.00
20145;BME280;10233;50.814;6.590;2023-04-05T03:23:46;100894.91;;;3.51;100.00
20145;BME280;10233;50.814;6.590;2023-04-05T03:24:53;100894.66;;;3.54;100.00
20145;BME280;10233;50.814;6.590;2023-04-05T03:26:01;100890.78;;;3.58;100.00
20145;BME280;10233;50.814;6.590;2023-04-05T03:27:06;100883.28;;;3.54;100.00
20145;BME280;10233;50.814;6.590;2023-04-05T03:28:28;100885.25;;;3.52;100.00
20145;BME280;10233;50.814;6.590;2023-04-05T03:29:34;100884.13;;;3.54;100.00
20145;BME280;10233;50.814;6.590;2023-04-05T03:30:42;100880.84;;;3.52;100.00
20145;BME280;10233;50.814;6.590;2023-04-05T03:31:51;100890.94;;;3.47;100.00
20145;BME280;10233;50.814;6.590;2023-04-05T03:32:55;100884.84;;;3.47;100.00
20145;BME280;10233;50.814;6.590;2023-04-05T03:34:10;100884.56;;;3.50;100.00
20145;BME280;10233;50.814;6.590;2023-04-05T03:35:18;100881.53;;;3.45;100.00
20145;BME280;10233;50.814;6.590;2023-04-05T03:36:20;100884.00;;;3.46;100.00
20145;BME280;10233;50.814;6.590;2023-04-05T03:37:28;100876.97;;;3.47;100.00
20145;BME280;10233;50.814;6.590;2023-04-05T03:38:38;100880.84;;;3.43;100.00
20145;BME280;10233;50.814;6.590;2023-04-05T03:39:44;100878.06;;;3.44;100.00
20145;BME280;10233;50.814;6.590;2023-04-05T03:40:47;100881.13;;;3.40;100.00
20145;BME280;10233;50.814;6.590;2023-04-05T03:41:48;100884.88;;;3.37;100.00
20145;BME280;10233;50.814;6.590;2023-04-05T03:42:49;100883.47;;;3.33;100.00
20145;BME280;10233;50.814;6.590;2023-04-05T03:43:50;100885.69;;;3.28;100.00
20145;BME280;10233;50.814;6.590;2023-04-05T03:44:54;100881.69;;;3.24;100.00
20145;BME280;10233;50.814;6.590;2023-04-05T03:45:55;100879.31;;;3.21;100.00
20145;BME280;10233;50.814;6.590;2023-04-05T03:46:57;100881.53;;;3.16;100.00
20145;BME280;10233;50.814;6.590;2023-04-05T03:48:00;100880.16;;;3.12;100.00
20145;BME280;10233;50.814;6.590;2023-04-05T03:49:01;100880.44;;;3.09;100.00
20145;BME280;10233;50.814;6.590;2023-04-05T03:50:02;100881.41;;;3.08;100.00
20145;BME280;10233;50.814;6.590;2023-04-05T03:51:05;100876.00;;;3.10;100.00
20145;BME280;10233;50.814;6.590;2023-04-05T03:52:06;100878.09;;;3.06;100.00
20145;BME280;10233;50.814;6.590;2023-04-05T03:53:07;100875.06;;;3.01;100.00
20145;BME280;10233;50.814;6.590;2023-04-05T03:54:09;100885.44;;;2.93;100.00
20145;BME280;10233;50.814;6.590;2023-04-05T03:55:10;100869.94;;;2.90;100.00
20145;BME280;10233;50.814;6.590;2023-04-05T03:56:13;100879.47;;;2.91;100.00
20145;BME280;10233;50.814;6.590;2023-04-05T03:57:25;100876.16;;;2.89;100.00
20145;BME280;10233;50.814;6.590;2023-04-05T03:58:30;100876.28;;;2.88;100.00
20145;BME280;10233;50.814;6.590;2023-04-05T03:59:32;100872.28;;;2.84;100.00
20145;BME280;10233;50.814;6.590;2023-04-05T04:00:34;100873.13;;;2.84;100.00
20145;BME280;10233;50.814;6.590;2023-04-05T04:01:44;100878.63;;;2.81;100.00
20145;BME280;10233;50.814;6.590;2023-04-05T04:02:48;100874.09;;;2.83;100.00
20145;BME280;10233;50.814;6.590;2023-04-05T04:03:54;100874.34;;;2.80;100.00
20145;BME280;10233;50.814;6.590;2023-04-05T04:04:54;100873.38;;;2.81;100.00
20145;BME280;10233;50.814;6.590;2023-04-05T04:05:58;100873.69;;;2.78;100.00
20145;BME280;10233;50.814;6.590;2023-04-05T04:06:58;100872.69;;;2.79;100.00
20145;BME280;10233;50.814;6.590;2023-04-05T04:08:01;100869.91;;;2.71;100.00
20145;BME280;10233;50.814;6.590;2023-04-05T04:09:02;100875.16;;;2.71;100.00
20145;BME280;10233;50.814;6.590;2023-04-05T04:10:05;100874.75;;;2.66;100.00
20145;BME280;10233;50.814;6.590;2023-04-05T04:11:07;100874.50;;;2.69;100.00
20145;BME280;10233;50.814;6.590;2023-04-05T04:12:11;100880.84;;;2.67;100.00
20145;BME280;10233;50.814;6.590;2023-04-05T04:13:20;100875.72;;;2.65;100.00
20145;BME280;10233;50.814;6.590;2023-04-05T04:14:29;100879.88;;;2.68;100.00
20145;BME280;10233;50.814;6.590;2023-04-05T04:15:36;100877.38;;;2.66;100.00
20145;BME280;10233;50.814;6.590;2023-04-05T04:17:35;100878.88;;;2.59;100.00
20145;BME280;10233;50.814;6.590;2023-04-05T04:19:05;100883.56;;;2.56;100.00
20145;BME280;10233;50.814;6.590;2023-04-05T04:20:12;100879.84;;;2.58;100.00
20145;BME280;10233;50.814;6.590;2023-04-05T04:21:34;100888.28;;;2.62;100.00
20145;BME280;10233;50.814;6.590;2023-04-05T04:22:50;100885.38;;;2.55;100.00
20145;BME280;10233;50.814;6.590;2023-04-05T04:23:53;100887.28;;;2.53;100.00
20145;BME280;10233;50.814;6.590;2023-04-05T04:25:18;100877.06;;;2.50;100.00
20145;BME280;10233;50.814;6.590;2023-04-05T04:26:34;100886.16;;;2.46;100.00
20145;BME280;10233;50.814;6.590;2023-04-05T04:27:51;100880.25;;;2.44;100.00
20145;BME280;10233;50.814;6.590;2023-04-05T04:29:06;100882.69;;;2.46;100.00
20145;BME280;10233;50.814;6.590;2023-04-05T04:30:29;100879.94;;;2.47;100.00
20145;BME280;10233;50.814;6.590;2023-04-05T04:31:50;100879.66;;;2.41;100.00
20145;BME280;10233;50.814;6.590;2023-04-05T04:33:30;100873.31;;;2.43;100.00
20145;BME280;10233;50.814;6.590;2023-04-05T04:34:59;100876.09;;;2.42;100.00
20145;BME280;10233;50.814;6.590;2023-04-05T04:36:14;100884.47;;;2.36;100.00
20145;BME280;10233;50.814;6.590;2023-04-05T04:37:40;100880.38;;;2.43;100.00
20145;BME280;10233;50.814;6.590;2023-04-05T04:39:13;100884.38;;;2.07;100.00
20145;BME280;10233;50.814;6.590;2023-04-05T04:40:43;100892.72;;;1.92;100.00
20145;BME280;10233;50.814;6.590;2023-04-05T04:42:22;100887.69;;;1.79;100.00
20145;BME280;10233;50.814;6.590;2023-04-05T04:43:43;100882.56;;;1.77;100.00
20145;BME280;10233;50.814;6.590;2023-04-05T04:44:53;100889.31;;;1.71;100.00
20145;BME280;10233;50.814;6.590;2023-04-05T04:46:17;100882.09;;;1.63;100.00
20145;BME280;10233;50.814;6.590;2023-04-05T04:47:31;100887.56;;;1.60;100.00
20145;BME280;10233;50.814;6.590;2023-04-05T04:49:01;100886.75;;;1.60;100.00
20145;BME280;10233;50.814;6.590;2023-04-05T04:50:08;100886.16;;;1.56;100.00
20145;BME280;10233;50.814;6.590;2023-04-05T04:51:09;100887.13;;;1.55;100.00
20145;BME280;10233;50.814;6.590;2023-04-05T04:52:10;100886.16;;;1.56;100.00
20145;BME280;10233;50.814;6.590;2023-04-05T04:53:13;100878.16;;;1.48;100.00
20145;BME280;10233;50.814;6.590;2023-04-05T04:54:16;100884.16;;;1.39;100.00
20145;BME280;10233;50.814;6.590;2023-04-05T04:55:20;100876.34;;;1.28;100.00
20145;BME280;10233;50.814;6.590;2023-04-05T04:56:24;100889.97;;;1.22;100.00
20145;BME280;10233;50.814;6.590;2023-04-05T04:57:26;100885.66;;;1.21;100.00
20145;BME280;10233;50.814;6.590;2023-04-05T04:58:28;100890.19;;;1.19;100.00
20145;BME280;10233;50.814;6.590;2023-04-05T04:59:36;100880.72;;;1.07;100.00
20145;BME280;10233;50.814;6.590;2023-04-05T05:00:42;100884.31;;;1.06;100.00
20145;BME280;10233;50.814;6.590;2023-04-05T05:01:46;100881.97;;;0.92;100.00
20145;BME280;10233;50.814;6.590;2023-04-05T05:02:46;100887.66;;;0.97;100.00
20145;BME280;10233;50.814;6.590;2023-04-05T05:03:50;100890.66;;;0.93;100.00
20145;BME280;10233;50.814;6.590;2023-04-05T05:04:55;100887.09;;;0.93;100.00
20145;BME280;10233;50.814;6.590;2023-04-05T05:05:57;100877.47;;;0.94;100.00
20145;BME280;10233;50.814;6.590;2023-04-05T05:07:03;100884.13;;;0.98;100.00
20145;BME280;10233;50.814;6.590;2023-04-05T05:08:06;100884.56;;;1.03;100.00
20145;BME280;10233;50.814;6.590;2023-04-05T05:09:07;100884.31;;;1.06;100.00
20145;BME280;10233;50.814;6.590;2023-04-05T05:10:14;100887.66;;;1.08;100.00
20145;BME280;10233;50.814;6.590;2023-04-05T05:11:15;100886.56;;;1.11;100.00
20145;BME280;10233;50.814;6.590;2023-04-05T05:12:20;100887.38;;;1.11;100.00
20145;BME280;10233;50.814;6.590;2023-04-05T05:13:20;100889.75;;;1.14;100.00
20145;BME280;10233;50.814;6.590;2023-04-05T05:14:21;100889.75;;;1.14;100.00
20145;BME280;10233;50.814;6.590;2023-04-05T05:15:21;100879.53;;;1.11;100.00
20145;BME280;10233;50.814;6.590;2023-04-05T05:16:25;100883.34;;;1.07;100.00
20145;BME280;10233;50.814;6.590;2023-04-05T05:17:29;100883.09;;;1.10;100.00
20145;BME280;10233;50.814;6.590;2023-04-05T05:18:31;100879.41;;;1.13;100.00
20145;BME280;10233;50.814;6.590;2023-04-05T05:19:32;100887.66;;;1.08;100.00
20145;BME280;10233;50.814;6.590;2023-04-05T05:20:35;100886.09;;;1.06;100.00
20145;BME280;10233;50.814;6.590;2023-04-05T05:21:36;100883.56;;;1.15;100.00
20145;BME280;10233;50.814;6.590;2023-04-05T05:22:37;100885.28;;;1.26;100.00
20145;BME280;10233;50.814;6.590;2023-04-05T05:23:38;100889.75;;;1.14;100.00
20145;BME280;10233;50.814;6.590;2023-04-05T05:24:39;100883.44;;;1.17;100.00
20145;BME280;10233;50.814;6.590;2023-04-05T05:25:39;100882.09;;;1.22;100.00
20145;BME280;10233;50.814;6.590;2023-04-05T05:26:42;100888.44;;;1.20;100.00
20145;BME280;10233;50.814;6.590;2023-04-05T05:27:43;100883.75;;;1.23;100.00
20145;BME280;10233;50.814;6.590;2023-04-05T05:28:43;100885.41;;;1.24;100.00
20145;BME280;10233;50.814;6.590;2023-04-05T05:29:45;100888.16;;;1.23;100.00
20145;BME280;10233;50.814;6.590;2023-04-05T05:30:45;100883.56;;;1.15;100.00
20145;BME280;10233;50.814;6.590;2023-04-05T05:31:46;100884.44;;;1.25;100.00
20145;BME280;10233;50.814;6.590;2023-04-05T05:32:47;100884.91;;;1.30;100.00
20145;BME280;10233;50.814;6.590;2023-04-05T05:33:50;100882.81;;;1.45;100.00
20145;BME280;10233;50.814;6.590;2023-04-05T05:34:51;100887.78;;;1.48;100.00
20145;BME280;10233;50.814;6.590;2023-04-05T05:35:51;100879.56;;;1.52;100.00
20145;BME280;10233;50.814;6.590;2023-04-05T05:36:56;100884.16;;;1.60;100.00
20145;BME280;10233;50.814;6.590;2023-04-05T05:37:57;100887.09;;;1.66;100.00
20145;BME280;10233;50.814;6.590;2023-04-05T05:38:57;100887.53;;;1.71;100.00
20145;BME280;10233;50.814;6.590;2023-04-05T05:39:58;100883.81;;;1.74;100.00
20145;BME280;10233;50.814;6.590;2023-04-05T05:40:59;100884.41;;;1.87;100.00
20145;BME280;10233;50.814;6.590;2023-04-05T05:41:59;100886.22;;;1.86;100.00
20145;BME280;10233;50.814;6.590;2023-04-05T05:43:00;100882.00;;;1.74;100.00
20145;BME280;10233;50.814;6.590;2023-04-05T05:44:01;100890.75;;;1.84;100.00
20145;BME280;10233;50.814;6.590;2023-04-05T05:45:03;100881.47;;;1.80;100.00
20145;BME280;10233;50.814;6.590;2023-04-05T05:46:04;100882.22;;;1.92;100.00
20145;BME280;10233;50.814;6.590;2023-04-05T05:47:05;100882.88;;;1.84;100.00
20145;BME280;10233;50.814;6.590;2023-04-05T05:48:05;100884.53;;;1.85;100.00